createdAt,value
2022-08-02T13:30:27.242Z,85.44
2022-08-02T13:33:01.141Z,85.33
2022-08-02T13:35:32.165Z,85.75
2022-08-02T13:38:03.816Z,85.86
2022-08-02T13:40:49.200Z,86.07
2022-08-02T13:43:24.058Z,85.85
2022-08-02T13:46:14.305Z,85.81
2022-08-02T13:48:44.425Z,85.85
2022-08-02T13:51:15.465Z,85.92
2022-08-02T13:53:47.758Z,85.36
2022-08-02T13:56:18.135Z,85.30
2022-08-02T13:58:48.320Z,85.18
2022-08-02T14:01:18.610Z,84.78
2022-08-02T14:04:08.673Z,84.81
2022-08-02T14:06:40.409Z,83.92
2022-08-02T14:09:15.669Z,83.01
2022-08-02T14:11:48.767Z,83.28
2022-08-02T14:14:19.023Z,83.19
2022-08-02T14:16:49.265Z,83.22
2022-08-02T14:19:19.485Z,83.17
2022-08-02T14:21:50.401Z,83.12
2022-08-02T14:24:28.921Z,82.98
2022-08-02T14:26:59.338Z,82.65
2022-08-02T14:29:29.401Z,83.20
2022-08-02T14:31:59.382Z,82.92
2022-08-02T14:34:29.638Z,82.82
2022-08-02T14:36:59.864Z,82.67
2022-08-02T14:39:42.472Z,82.58
2022-08-02T14:42:20.542Z,82.22
2022-08-02T14:44:50.804Z,82.50
2022-08-02T14:47:21.051Z,81.82
2022-08-02T14:49:51.565Z,81.94
2022-08-02T14:52:22.580Z,81.50
2022-08-02T14:54:52.855Z,81.29
2022-08-02T14:57:23.312Z,81.07
2022-08-02T14:59:54.665Z,80.98
2022-08-02T15:02:24.832Z,80.94
2022-08-02T15:04:54.854Z,80.79
2022-08-02T15:07:24.879Z,81.03
2022-08-02T15:09:54.873Z,80.96
2022-08-02T15:12:25.156Z,80.57
2022-08-02T15:14:55.632Z,80.42
2022-08-02T15:17:25.831Z,80.81
2022-08-02T15:20:00.311Z,80.96
2022-08-02T15:22:32.627Z,80.89
2022-08-02T15:25:03.424Z,80.55
2022-08-02T15:27:33.891Z,80.84
2022-08-02T15:30:08.337Z,80.52
2022-08-02T15:32:38.531Z,80.31
2022-08-02T15:35:09.795Z,80.49
2022-08-02T15:37:41.513Z,80.33
2022-08-02T15:40:12.878Z,80.33
2022-08-02T15:42:43.391Z,80.04
2022-08-02T15:45:15.492Z,79.68
2022-08-02T15:47:48.087Z,79.65
2022-08-02T15:50:21.757Z,79.28
2022-08-02T15:52:52.066Z,78.98
2022-08-02T15:55:22.343Z,78.71
2022-08-02T15:57:52.366Z,79.03
2022-08-02T16:00:22.810Z,79.01
2022-08-02T16:02:55.806Z,78.56
2022-08-02T16:05:26.093Z,78.65
2022-08-02T16:07:56.450Z,78.69
2022-08-02T16:10:26.552Z,78.62
2022-08-02T16:13:17.746Z,78.84
2022-08-02T16:15:47.973Z,78.61
2022-08-02T16:18:18.420Z,78.63
2022-08-02T16:20:48.666Z,78.47
2022-08-02T16:23:18.907Z,78.53
2022-08-02T16:26:09.577Z,78.61
2022-08-02T16:28:39.888Z,78.88
2022-08-02T16:31:11.709Z,78.87
2022-08-02T16:33:42.121Z,79.06
2022-08-02T16:36:16.307Z,78.95
2022-08-02T16:38:49.795Z,79.11
2022-08-02T16:41:20.006Z,79.03
2022-08-02T16:43:50.641Z,78.97
2022-08-02T16:46:20.738Z,79.17
2022-08-02T16:48:51.755Z,79.41
2022-08-02T16:51:22.070Z,79.12
2022-08-02T16:54:00.300Z,78.68
2022-08-02T16:56:31.605Z,78.59
2022-08-02T16:59:03.868Z,78.80
2022-08-02T17:02:03.186Z,78.75
2022-08-02T17:04:27.514Z,79.04
2022-08-02T17:06:59.113Z,78.83
2022-08-02T17:10:02.480Z,78.85
2022-08-02T17:12:21.904Z,78.95
2022-08-02T17:14:55.622Z,78.81
2022-08-02T17:17:34.282Z,79.07
2022-08-02T17:20:06.356Z,79.00
2022-08-02T17:22:37.169Z,78.96
2022-08-02T17:25:11.172Z,79.27
2022-08-02T17:27:42.275Z,78.88
2022-08-02T17:30:13.320Z,79.06
2022-08-02T17:32:45.494Z,78.98
2022-08-02T17:35:16.428Z,79.49
2022-08-02T17:37:54.889Z,79.04
2022-08-02T17:40:30.243Z,79.09
2022-08-02T17:43:00.267Z,79.19
2022-08-02T17:45:59.811Z,79.50
2022-08-02T17:48:21.695Z,78.98
2022-08-02T17:50:59.802Z,79.34
2022-08-02T17:53:36.285Z,79.22
2022-08-02T17:56:06.844Z,79.65
2022-08-02T17:58:37.010Z,79.44
2022-08-02T18:01:24.228Z,79.63
2022-08-02T18:03:54.811Z,79.13
2022-08-02T18:06:26.065Z,79.12
2022-08-02T18:08:56.077Z,79.40
2022-08-02T18:11:52.701Z,79.57
2022-08-02T18:14:24.444Z,79.47
2022-08-02T18:16:56.683Z,79.62
2022-08-02T18:19:33.123Z,79.34
2022-08-02T18:22:13.750Z,79.58
2022-08-02T18:24:44.259Z,79.31
2022-08-02T18:27:17.674Z,79.66
2022-08-02T18:30:00.005Z,79.38
2022-08-02T18:33:55.982Z,79.23
2022-08-02T18:35:29.816Z,79.49
2022-08-02T18:38:04.023Z,79.17
2022-08-02T18:40:41.368Z,79.14
2022-08-02T18:43:14.280Z,79.03
2022-08-02T18:46:06.081Z,78.91
2022-08-02T18:48:36.212Z,79.34
2022-08-02T18:51:06.432Z,79.58
2022-08-02T18:53:41.521Z,79.30
2022-08-02T18:56:20.497Z,79.30
2022-08-02T18:58:58.059Z,79.62
2022-08-02T19:01:32.194Z,79.45
2022-08-02T19:04:05.117Z,79.68
2022-08-02T19:06:35.545Z,79.68
2022-08-02T19:09:13.526Z,79.67
2022-08-02T19:11:47.558Z,79.67
2022-08-02T19:14:28.106Z,79.77
2022-08-02T19:17:15.707Z,79.92
2022-08-02T19:19:52.605Z,79.83
2022-08-02T19:22:27.125Z,79.59
2022-08-02T19:25:00.091Z,79.71
2022-08-02T19:27:33.934Z,79.88
2022-08-02T19:30:07.530Z,79.50
2022-08-02T19:32:40.198Z,79.88
2022-08-02T19:35:29.116Z,79.72
2022-08-02T19:38:12.108Z,79.86
2022-08-02T19:40:45.846Z,79.78
2022-08-02T19:44:22.976Z,79.92
2022-08-02T19:46:07.394Z,80.01
2022-08-02T19:48:47.455Z,79.79
2022-08-02T19:51:49.760Z,80.13
2022-08-02T19:54:10.553Z,80.46
2022-08-02T19:56:42.525Z,80.31
2022-08-02T19:59:14.108Z,80.31
2022-08-02T20:01:48.583Z,79.84
2022-08-02T20:04:23.481Z,80.11
2022-08-02T20:06:54.238Z,80.37
2022-08-02T20:09:33.231Z,80.12
2022-08-02T20:12:04.802Z,80.16
2022-08-02T20:14:35.196Z,80.17
2022-08-02T20:17:09.701Z,80.48
2022-08-02T20:19:46.359Z,80.52
2022-08-02T20:22:17.984Z,80.58
2022-08-02T20:24:48.652Z,80.73
2022-08-02T20:27:23.820Z,80.72
2022-08-02T20:29:55.240Z,80.93
2022-08-02T20:32:25.745Z,80.66
2022-08-02T20:34:55.776Z,80.90
2022-08-02T20:37:59.578Z,81.15
2022-08-02T20:40:18.501Z,80.86
2022-08-02T20:42:50.054Z,81.13
2022-08-02T20:45:24.569Z,81.43
2022-08-02T20:48:00.063Z,81.40
2022-08-02T20:50:49.541Z,81.23
2022-08-02T20:53:26.125Z,81.84
2022-08-02T20:56:00.668Z,81.90
2022-08-02T20:58:31.157Z,81.77
2022-08-02T21:01:01.637Z,81.91
2022-08-02T21:03:40.030Z,81.76
2022-08-02T21:06:14.908Z,81.84
2022-08-02T21:08:47.429Z,81.63
2022-08-02T21:11:18.741Z,81.40
2022-08-02T21:14:08.566Z,81.69
2022-08-02T21:16:39.417Z,81.44
2022-08-02T21:19:10.027Z,81.57
2022-08-02T21:21:40.510Z,81.28
2022-08-02T21:24:12.510Z,81.80
2022-08-02T21:26:42.727Z,81.81
2022-08-02T21:29:19.147Z,81.87
2022-08-02T21:31:49.451Z,82.05
2022-08-02T21:34:27.446Z,81.81
2022-08-02T21:36:58.974Z,81.78
2022-08-02T21:39:29.376Z,81.62
2022-08-02T21:41:59.840Z,81.85
2022-08-02T21:44:29.844Z,81.80
2022-08-02T21:47:00.005Z,81.95
2022-08-02T21:50:09.179Z,81.82
2022-08-02T21:52:25.905Z,81.57
2022-08-02T21:55:00.187Z,81.82
2022-08-02T21:57:34.821Z,81.68
2022-08-02T22:00:28.862Z,81.62
2022-08-02T22:02:59.373Z,81.40
2022-08-02T22:05:49.615Z,81.73
2022-08-02T22:08:21.772Z,81.46
2022-08-02T22:11:03.851Z,81.90
2022-08-02T22:13:38.915Z,81.69
2022-08-02T22:16:18.303Z,81.69
2022-08-02T22:18:51.366Z,82.04
2022-08-02T22:21:27.670Z,81.49
2022-08-02T22:24:12.917Z,81.87
2022-08-02T22:26:50.502Z,82.11
2022-08-02T22:29:21.114Z,81.74
2022-08-02T22:31:51.154Z,81.63
2022-08-02T22:34:36.856Z,81.78
2022-08-02T22:38:15.235Z,81.78
2022-08-02T22:40:08.642Z,81.66
2022-08-02T22:42:40.182Z,81.70
2022-08-02T22:45:11.885Z,82.05
2022-08-02T22:47:51.016Z,81.96
2022-08-02T22:50:22.034Z,81.81
2022-08-02T22:52:52.117Z,81.86
2022-08-02T22:55:22.602Z,81.61
2022-08-02T22:57:57.210Z,81.87
2022-08-02T23:00:29.017Z,81.58
2022-08-02T23:02:59.253Z,81.92
